Terminal Aerodrome Forecast
Issued by NWS Des Moines, IA

Home | Current Version | Previous Version | Text Only | Print | Product List | Glossary On
Versions: 1 2 3 4 5 6 7 8 9 10 11 12 13 14 15
000
FTUS43 KDMX 170422 AAB
TAFDSM
TAF AMD
KDSM 170422Z 1704/1724 30015G21KT P6SM BKN015
     FM171400 31013G19KT P6SM FEW021 SCT250=

USA.gov is the U.S. government's official web portal to all federal, state and local government web resources and services.